createdAt,value
2019-05-05T00:01:14.710Z,3.68
2019-05-05T00:04:04.498Z,3.08
2019-05-05T00:06:34.270Z,2.50
2019-05-05T00:09:05.286Z,2.30
2019-05-05T00:11:47.705Z,1.77
2019-05-05T00:14:30.184Z,2.35
2019-05-05T00:17:05.229Z,3.00
2019-05-05T00:19:35.843Z,2.55
2019-05-05T00:22:06.362Z,2.42
2019-05-05T00:24:36.915Z,2.55
2019-05-05T00:27:06.271Z,3.37
2019-05-05T00:29:35.123Z,3.23
2019-05-05T00:32:06.136Z,2.20
2019-05-05T00:34:35.059Z,2.80
2019-05-05T00:37:06.253Z,2.92
2019-05-05T00:39:34.853Z,3.27
2019-05-05T00:42:04.764Z,2.27
2019-05-05T00:44:35.381Z,1.80
2019-05-05T00:47:21.939Z,2.87
2019-05-05T00:49:52.035Z,1.60
2019-05-05T00:52:20.825Z,2.52
2019-05-05T00:54:49.624Z,2.17
2019-05-05T00:57:18.425Z,2.87
2019-05-05T00:59:47.524Z,2.80
2019-05-05T01:02:30.022Z,2.83
2019-05-05T01:05:10.552Z,2.60
2019-05-05T01:07:39.375Z,2.77
2019-05-05T01:10:08.133Z,3.40
2019-05-05T01:12:36.624Z,3.00
2019-05-05T01:15:06.957Z,3.30
2019-05-05T01:17:37.233Z,3.37
2019-05-05T01:20:07.565Z,2.27
2019-05-05T01:22:36.062Z,3.10
2019-05-05T01:25:06.473Z,2.77
2019-05-05T01:27:35.512Z,3.40
2019-05-05T01:30:07.360Z,4.34
2019-05-05T01:32:47.886Z,3.30
2019-05-05T01:35:16.668Z,2.85
2019-05-05T01:37:47.207Z,2.52
2019-05-05T01:40:35.404Z,3.00
2019-05-05T01:43:05.941Z,3.47
2019-05-05T01:45:35.487Z,2.70
2019-05-05T01:48:05.368Z,3.17
2019-05-05T01:50:36.073Z,3.30
2019-05-05T01:53:06.716Z,3.80
2019-05-05T01:55:37.001Z,4.17
2019-05-05T01:58:06.384Z,3.60
2019-05-05T02:00:35.383Z,3.57
2019-05-05T02:03:04.517Z,3.47
2019-05-05T02:05:34.977Z,3.35
2019-05-05T02:08:05.504Z,4.07
2019-05-05T02:10:34.987Z,3.33
2019-05-05T02:13:04.652Z,3.80
2019-05-05T02:15:34.460Z,3.40
2019-05-05T02:18:04.501Z,3.13
2019-05-05T02:20:35.861Z,3.60
2019-05-05T02:23:05.687Z,3.27
2019-05-05T02:25:36.402Z,3.25
2019-05-05T02:28:06.511Z,3.62
2019-05-05T02:30:41.537Z,3.37
2019-05-05T02:33:15.458Z,3.30
2019-05-05T02:35:45.618Z,3.60
2019-05-05T02:38:15.550Z,3.97
2019-05-05T02:40:45.259Z,3.43
2019-05-05T02:43:15.060Z,3.57
2019-05-05T02:45:46.992Z,2.80
2019-05-05T02:48:16.235Z,2.90
2019-05-05T02:50:55.937Z,3.17
2019-05-05T02:53:21.967Z,3.33
2019-05-05T02:55:51.055Z,3.33
2019-05-05T02:58:21.587Z,3.45
2019-05-05T03:00:54.770Z,3.50
2019-05-05T03:03:23.939Z,3.10
2019-05-05T03:05:53.910Z,4.00
2019-05-05T03:08:24.232Z,3.90
2019-05-05T03:10:53.639Z,3.37
2019-05-05T03:13:24.346Z,4.00
2019-05-05T03:16:00.451Z,4.55
2019-05-05T03:18:29.336Z,3.95
2019-05-05T03:21:04.423Z,4.08
2019-05-05T03:23:28.599Z,4.90
2019-05-05T03:25:57.400Z,3.70
2019-05-05T03:28:27.890Z,3.47
2019-05-05T03:30:56.704Z,3.33
2019-05-05T03:33:26.465Z,4.67
2019-05-05T03:35:55.256Z,3.55
2019-05-05T03:38:24.779Z,3.73
2019-05-05T03:40:55.344Z,3.83
2019-05-05T03:43:25.583Z,4.40
2019-05-05T03:45:56.406Z,3.65
2019-05-05T03:48:25.436Z,3.92
2019-05-05T03:50:54.185Z,3.62
2019-05-05T03:53:24.597Z,4.73
2019-05-05T03:55:54.575Z,3.73
2019-05-05T03:58:24.160Z,4.47
2019-05-05T04:01:00.643Z,3.52
2019-05-05T04:03:30.930Z,4.17
2019-05-05T04:06:01.111Z,3.50
2019-05-05T04:08:29.803Z,4.22
2019-05-05T04:10:58.393Z,3.75
2019-05-05T04:13:28.328Z,4.27
2019-05-05T04:16:11.146Z,4.17
2019-05-05T04:18:50.748Z,4.33
2019-05-05T04:21:30.411Z,3.42
2019-05-05T04:23:50.114Z,5.08
2019-05-05T04:26:18.629Z,4.93
2019-05-05T04:28:47.123Z,5.10
2019-05-05T04:31:15.613Z,4.67
2019-05-05T04:33:45.721Z,4.12
2019-05-05T04:36:14.541Z,3.90
2019-05-05T04:38:43.967Z,4.20
2019-05-05T04:41:14.006Z,3.83
2019-05-05T04:43:44.233Z,4.27
2019-05-05T04:46:14.090Z,4.00
2019-05-05T04:49:03.597Z,4.28
2019-05-05T04:51:46.999Z,5.10
2019-05-05T04:54:26.112Z,3.90
2019-05-05T04:57:01.478Z,4.17
2019-05-05T05:02:00.514Z,4.05
2019-05-05T05:04:44.087Z,5.27
2019-05-05T05:07:13.645Z,4.17
2019-05-05T05:09:43.446Z,4.70
2019-05-05T05:12:14.499Z,4.77
2019-05-05T05:14:44.086Z,4.53
2019-05-05T05:17:14.981Z,4.35
2019-05-05T05:19:43.879Z,3.90
2019-05-05T05:22:13.668Z,4.30
2019-05-05T05:24:45.743Z,4.90
2019-05-05T05:27:14.257Z,4.73
2019-05-05T05:29:43.815Z,4.62
2019-05-05T05:32:12.527Z,4.30
2019-05-05T05:34:43.768Z,4.67
2019-05-05T05:37:13.782Z,3.90
2019-05-05T05:39:47.696Z,4.20
2019-05-05T05:42:16.612Z,3.90
2019-05-05T05:44:49.556Z,4.28
2019-05-05T05:47:36.281Z,3.50
2019-05-05T05:50:08.217Z,4.25
2019-05-05T05:52:38.551Z,3.87
2019-05-05T05:55:07.340Z,3.60
2019-05-05T05:57:37.360Z,4.37
2019-05-05T06:00:11.083Z,4.17
2019-05-05T06:02:44.073Z,4.37
2019-05-05T06:05:14.568Z,3.87
2019-05-05T06:07:44.309Z,4.80
2019-05-05T06:10:23.915Z,4.10
2019-05-05T06:12:45.057Z,4.97
2019-05-05T06:15:14.285Z,4.05
2019-05-05T06:17:43.504Z,4.15
2019-05-05T06:20:15.387Z,4.40
2019-05-05T06:22:44.661Z,4.03
2019-05-05T06:25:16.533Z,4.33
2019-05-05T06:27:45.386Z,4.60
2019-05-05T06:30:14.451Z,4.73
2019-05-05T06:32:45.574Z,3.97
2019-05-05T06:35:14.716Z,4.28
2019-05-05T06:37:55.718Z,4.53
2019-05-05T06:40:44.275Z,4.53
2019-05-05T06:43:25.386Z,5.10
2019-05-05T06:46:04.406Z,4.05
2019-05-05T06:48:34.385Z,4.45
2019-05-05T06:51:03.943Z,4.40
2019-05-05T06:53:34.210Z,4.47
2019-05-05T06:56:04.091Z,4.35
2019-05-05T06:58:34.705Z,4.22
2019-05-05T07:01:03.622Z,2.55
2019-05-05T07:03:33.681Z,4.53
2019-05-05T07:06:04.367Z,3.72
2019-05-05T07:08:34.674Z,4.08
2019-05-05T07:11:04.065Z,3.30
2019-05-05T07:13:33.935Z,4.73
2019-05-05T07:16:04.894Z,4.00
2019-05-05T07:18:34.117Z,3.40
2019-05-05T07:21:03.653Z,4.40
2019-05-05T07:23:35.001Z,3.22
2019-05-05T07:26:05.011Z,3.40
2019-05-05T07:28:34.210Z,3.60
2019-05-05T07:31:05.910Z,4.08
2019-05-05T07:33:36.683Z,4.12
2019-05-05T07:36:25.278Z,3.94
2019-05-05T07:38:54.769Z,3.15
2019-05-05T07:41:23.576Z,4.13
2019-05-05T07:43:54.168Z,4.08
2019-05-05T07:46:24.119Z,4.70
2019-05-05T07:48:54.460Z,3.50
2019-05-05T07:51:24.238Z,2.75
2019-05-05T07:53:54.654Z,4.08
2019-05-05T07:56:23.801Z,3.17
2019-05-05T07:58:54.313Z,3.15
2019-05-05T08:01:24.486Z,2.80
2019-05-05T08:03:53.861Z,4.03
2019-05-05T08:06:23.682Z,3.72
2019-05-05T08:08:54.456Z,2.98
2019-05-05T08:11:23.850Z,4.23
2019-05-05T08:13:54.590Z,4.33
2019-05-05T08:16:27.394Z,2.77
2019-05-05T08:19:15.925Z,3.20
2019-05-05T08:21:44.825Z,4.00
2019-05-05T08:24:18.208Z,3.80
2019-05-05T08:27:00.201Z,2.27
2019-05-05T08:29:30.928Z,3.67
2019-05-05T08:32:04.444Z,4.43
2019-05-05T08:34:33.974Z,3.22
2019-05-05T08:37:04.532Z,2.85
2019-05-05T08:39:34.465Z,3.80
2019-05-05T08:42:04.324Z,4.12
2019-05-05T08:44:34.726Z,3.33
2019-05-05T08:47:04.462Z,3.47
2019-05-05T08:49:34.702Z,3.93
2019-05-05T08:52:04.135Z,4.62
2019-05-05T08:54:34.417Z,3.02
2019-05-05T08:57:04.207Z,4.40
2019-05-05T08:59:33.754Z,3.72
2019-05-05T09:02:04.353Z,4.17
2019-05-05T09:04:34.027Z,3.80
2019-05-05T09:07:05.059Z,3.80
2019-05-05T09:09:34.448Z,4.35
2019-05-05T09:12:04.578Z,3.47
2019-05-05T09:14:36.327Z,4.28
2019-05-05T09:17:06.802Z,3.66
2019-05-05T09:19:37.020Z,3.27
2019-05-05T09:22:08.702Z,4.20
2019-05-05T09:24:37.937Z,4.23
2019-05-05T09:27:25.531Z,3.47
2019-05-05T09:29:54.664Z,3.35
2019-05-05T09:32:24.291Z,3.17
2019-05-05T09:34:54.086Z,2.70
2019-05-05T09:37:24.655Z,3.60
2019-05-05T09:39:54.129Z,3.83
2019-05-05T09:42:23.929Z,3.67
2019-05-05T09:44:54.168Z,4.40
2019-05-05T09:47:24.142Z,2.57
2019-05-05T09:49:54.970Z,2.27
2019-05-05T09:52:24.474Z,2.60
2019-05-05T09:54:54.419Z,2.55
2019-05-05T09:57:23.833Z,2.27
2019-05-05T09:59:54.284Z,2.33
2019-05-05T10:02:24.011Z,4.47
2019-05-05T10:04:54.683Z,3.27
2019-05-05T10:07:24.253Z,4.43
2019-05-05T10:09:54.287Z,4.27
2019-05-05T10:12:23.098Z,3.63
2019-05-05T10:14:51.581Z,4.87
2019-05-05T10:17:20.226Z,4.13
2019-05-05T10:19:49.132Z,4.85
2019-05-05T10:22:17.719Z,4.33
2019-05-05T10:24:56.815Z,4.55
2019-05-05T10:27:24.245Z,4.37
2019-05-05T10:29:54.732Z,4.33
2019-05-05T10:32:24.506Z,5.30
2019-05-05T10:35:01.101Z,4.42
2019-05-05T10:37:30.321Z,2.67
2019-05-05T10:39:59.192Z,3.92
2019-05-05T10:42:46.129Z,3.30
2019-05-05T10:47:44.043Z,2.80
2019-05-05T10:50:13.886Z,3.67
2019-05-05T10:52:44.266Z,4.08
2019-05-05T10:55:14.546Z,3.15
2019-05-05T10:57:43.634Z,4.58
2019-05-05T11:00:19.848Z,3.60
2019-05-05T11:02:48.913Z,4.22
2019-05-05T11:05:17.884Z,3.97
2019-05-05T11:07:46.998Z,3.43
2019-05-05T11:10:17.032Z,4.10
2019-05-05T11:12:46.005Z,3.40
2019-05-05T11:15:16.000Z,6.05
2019-05-05T11:17:44.785Z,4.73
2019-05-05T11:20:14.311Z,4.50
2019-05-05T11:22:44.611Z,4.83
2019-05-05T11:25:13.894Z,4.07
2019-05-05T11:27:44.067Z,4.78
2019-05-05T11:30:17.704Z,4.40
2019-05-05T11:33:04.092Z,4.25
2019-05-05T11:35:51.156Z,3.30
2019-05-05T11:38:20.856Z,4.50
2019-05-05T11:40:49.851Z,3.62
2019-05-05T11:43:18.958Z,4.67
2019-05-05T11:45:47.541Z,4.83
2019-05-05T11:48:16.513Z,3.95
2019-05-05T11:50:45.101Z,4.25
2019-05-05T11:53:14.543Z,4.97
2019-05-05T11:55:44.253Z,5.20
2019-05-05T11:58:14.295Z,3.20
2019-05-05T12:00:43.879Z,3.55
2019-05-05T12:03:14.506Z,5.13
2019-05-05T12:05:44.245Z,3.80
2019-05-05T12:08:14.688Z,4.97
2019-05-05T12:10:46.243Z,4.70
2019-05-05T12:13:15.606Z,3.75
2019-05-05T12:15:48.271Z,4.73
2019-05-05T12:18:17.623Z,4.40
2019-05-05T12:20:46.104Z,3.92
2019-05-05T12:23:14.947Z,4.58
2019-05-05T12:25:52.887Z,4.65
2019-05-05T12:28:25.953Z,4.97
2019-05-05T12:31:06.120Z,3.77
2019-05-05T12:33:35.127Z,5.12
2019-05-05T12:36:06.879Z,4.20
2019-05-05T12:38:37.929Z,3.80
2019-05-05T12:41:07.489Z,3.67
2019-05-05T12:43:38.654Z,3.43
2019-05-05T12:46:09.116Z,3.70
2019-05-05T12:48:43.806Z,4.75
2019-05-05T12:51:14.579Z,3.42
2019-05-05T12:53:46.327Z,3.35
2019-05-05T12:56:24.235Z,3.92
2019-05-05T12:58:54.552Z,3.98
2019-05-05T13:01:27.728Z,3.03
2019-05-05T13:03:58.351Z,3.00
2019-05-05T13:06:31.648Z,4.10
2019-05-05T13:09:00.156Z,3.75
2019-05-05T13:11:34.225Z,2.90
2019-05-05T13:14:05.094Z,2.17
2019-05-05T13:16:34.269Z,2.87
2019-05-05T13:19:04.691Z,2.72
2019-05-05T13:21:51.398Z,3.00
2019-05-05T13:24:34.215Z,3.30
2019-05-05T13:27:19.072Z,5.33
2019-05-05T13:29:44.264Z,4.00
2019-05-05T13:32:14.819Z,3.50
2019-05-05T13:34:43.936Z,3.72
2019-05-05T13:37:14.118Z,2.83
2019-05-05T13:39:44.587Z,2.10
2019-05-05T13:42:16.033Z,2.92
2019-05-05T13:44:51.130Z,3.73
2019-05-05T13:47:19.723Z,2.60
2019-05-05T13:49:51.160Z,3.05
2019-05-05T13:52:20.164Z,4.00
2019-05-05T13:54:48.952Z,3.57
2019-05-05T13:57:18.053Z,2.90
2019-05-05T13:59:46.548Z,4.12
2019-05-05T14:02:15.052Z,3.23
2019-05-05T14:04:44.609Z,3.13
2019-05-05T14:07:13.342Z,3.17
2019-05-05T14:09:44.027Z,2.65
2019-05-05T14:12:14.977Z,2.05
2019-05-05T14:14:44.076Z,2.60
2019-05-05T14:17:14.752Z,3.33
2019-05-05T14:19:44.552Z,3.80
2019-05-05T14:22:13.691Z,4.40
2019-05-05T14:24:56.195Z,2.73
2019-05-05T14:27:24.983Z,3.02
2019-05-05T14:30:03.911Z,3.47
2019-05-05T14:32:34.917Z,2.90
2019-05-05T14:35:06.297Z,3.70
2019-05-05T14:37:37.032Z,2.77
2019-05-05T14:40:06.650Z,3.77
2019-05-05T14:42:37.162Z,3.97
2019-05-05T14:45:06.810Z,2.40
2019-05-05T14:47:37.199Z,2.83
2019-05-05T14:50:07.113Z,3.54
2019-05-05T14:52:35.732Z,3.55
2019-05-05T14:55:08.344Z,2.67
2019-05-05T14:57:36.853Z,3.00
2019-05-05T15:00:13.667Z,3.72
2019-05-05T15:02:43.870Z,4.07
2019-05-05T15:05:30.830Z,2.60
2019-05-05T15:08:07.143Z,4.08
2019-05-05T15:10:48.097Z,3.62
2019-05-05T15:13:17.107Z,2.98
2019-05-05T15:15:45.890Z,4.03
2019-05-05T15:18:14.694Z,3.63
2019-05-05T15:20:44.581Z,3.47
2019-05-05T15:23:13.499Z,4.47
2019-05-05T15:25:42.044Z,3.90
2019-05-05T15:28:11.232Z,3.50
2019-05-05T15:30:40.324Z,2.75
2019-05-05T15:33:08.915Z,3.00
2019-05-05T15:35:37.499Z,3.67
2019-05-05T15:38:06.818Z,3.85
2019-05-05T15:40:36.106Z,3.65
2019-05-05T15:43:06.027Z,2.98
2019-05-05T15:45:34.713Z,3.25
2019-05-05T15:48:04.593Z,3.33
2019-05-05T15:50:33.999Z,3.50
2019-05-05T15:53:03.812Z,3.27
2019-05-05T15:55:33.962Z,2.20
2019-05-05T15:58:03.660Z,1.92
2019-05-05T16:00:36.417Z,3.22
2019-05-05T16:03:07.383Z,2.30
2019-05-05T16:05:36.175Z,3.42
2019-05-05T16:08:06.739Z,2.90
2019-05-05T16:10:36.793Z,2.20
2019-05-05T16:13:06.925Z,2.60
2019-05-05T16:15:37.744Z,2.90
2019-05-05T16:18:23.141Z,2.37
2019-05-05T16:20:54.643Z,2.12
2019-05-05T16:23:28.171Z,3.00
2019-05-05T16:25:56.980Z,3.08
2019-05-05T16:28:25.442Z,3.35
2019-05-05T16:30:56.086Z,2.85
2019-05-05T16:33:24.565Z,3.70
2019-05-05T16:35:53.559Z,3.13
2019-05-05T16:38:24.032Z,2.95
2019-05-05T16:40:53.805Z,3.10
2019-05-05T16:43:24.699Z,3.80
2019-05-05T16:45:53.836Z,2.33
2019-05-05T16:48:25.599Z,2.67
2019-05-05T16:50:54.971Z,3.12
2019-05-05T16:53:36.975Z,2.57
2019-05-05T16:56:08.723Z,3.32
2019-05-05T16:58:37.608Z,3.33
2019-05-05T17:01:08.358Z,3.98
2019-05-05T17:03:38.567Z,4.20
2019-05-05T17:06:08.879Z,2.98
2019-05-05T17:08:38.938Z,3.02
2019-05-05T17:11:09.325Z,2.67
2019-05-05T17:13:49.088Z,2.70
2019-05-05T17:16:38.249Z,2.55
2019-05-05T17:19:14.391Z,3.17
2019-05-05T17:22:03.916Z,2.90
2019-05-05T17:24:32.156Z,2.30
2019-05-05T17:27:03.494Z,3.00
2019-05-05T17:29:31.554Z,2.95
2019-05-05T17:32:01.270Z,3.57
2019-05-05T17:34:30.971Z,2.72
2019-05-05T17:36:59.548Z,3.05
2019-05-05T17:39:29.668Z,2.87
2019-05-05T17:42:05.928Z,2.83
2019-05-05T17:44:36.360Z,2.67
2019-05-05T17:47:24.453Z,2.16
2019-05-05T17:49:55.227Z,3.75
2019-05-05T17:52:25.457Z,3.40
2019-05-05T17:54:55.164Z,3.55
2019-05-05T17:57:23.758Z,2.90
2019-05-05T17:59:53.608Z,3.08
2019-05-05T18:02:23.649Z,3.35
2019-05-05T18:04:54.118Z,3.60
2019-05-05T18:07:24.208Z,3.07
2019-05-05T18:09:57.832Z,4.62
2019-05-05T18:12:28.564Z,5.08
2019-05-05T18:15:02.046Z,5.10
2019-05-05T18:17:30.932Z,6.07
2019-05-05T18:19:59.514Z,5.58
2019-05-05T18:22:28.608Z,3.50
2019-05-05T18:24:57.804Z,4.00
2019-05-05T18:27:26.735Z,4.03
2019-05-05T18:29:55.580Z,3.93
2019-05-05T18:32:24.471Z,4.03
2019-05-05T18:34:54.556Z,4.47
2019-05-05T18:37:24.296Z,3.93
2019-05-05T18:39:54.599Z,3.85
2019-05-05T18:42:25.151Z,4.57
2019-05-05T18:44:58.668Z,3.90
2019-05-05T18:47:27.532Z,4.10
2019-05-05T18:49:56.236Z,4.95
2019-05-05T18:52:25.008Z,5.00
2019-05-05T18:54:54.617Z,4.53
2019-05-05T18:57:24.697Z,5.10
2019-05-05T18:59:54.451Z,4.78
2019-05-05T19:02:30.705Z,4.80
2019-05-05T19:05:09.935Z,5.13
2019-05-05T19:07:54.856Z,4.12
2019-05-05T19:10:13.955Z,5.23
2019-05-05T19:12:44.278Z,5.35
2019-05-05T19:15:13.899Z,5.55
2019-05-05T19:17:43.204Z,5.67
2019-05-05T19:20:24.197Z,5.22
2019-05-05T19:22:54.644Z,5.58
2019-05-05T19:25:24.192Z,6.30
2019-05-05T19:27:55.916Z,21.23
2019-05-05T19:30:25.680Z,17.75
2019-05-05T19:32:57.148Z,8.90
2019-05-05T19:35:40.144Z,10.67
2019-05-05T19:37:58.484Z,7.40
2019-05-05T19:40:27.051Z,7.97
2019-05-05T19:42:56.528Z,7.83
2019-05-05T19:45:26.811Z,12.13
2019-05-05T19:47:55.737Z,12.07
2019-05-05T19:50:26.106Z,20.00
2019-05-05T19:52:54.674Z,15.03
2019-05-05T19:55:23.252Z,9.97
2019-05-05T19:57:53.925Z,7.77
2019-05-05T20:00:31.495Z,7.58
2019-05-05T20:03:04.533Z,7.90
2019-05-05T20:05:30.386Z,7.85
2019-05-05T20:07:58.963Z,7.40
2019-05-05T20:10:27.958Z,6.90
2019-05-05T20:12:58.168Z,6.80
2019-05-05T20:15:33.711Z,7.03
2019-05-05T20:18:04.523Z,8.38
2019-05-05T20:20:33.623Z,7.92
2019-05-05T20:23:04.204Z,8.35
2019-05-05T20:25:34.026Z,8.17
2019-05-05T20:28:04.230Z,7.33
2019-05-05T20:30:35.367Z,8.95
2019-05-05T20:33:13.637Z,9.48
2019-05-05T20:35:46.450Z,9.47
2019-05-05T20:38:23.836Z,10.53
2019-05-05T20:40:57.656Z,11.03
2019-05-05T20:43:29.077Z,14.27
2019-05-05T20:45:58.173Z,13.70
2019-05-05T20:48:27.093Z,11.88
2019-05-05T20:50:55.952Z,11.80
2019-05-05T20:53:25.172Z,11.48
2019-05-05T20:55:54.623Z,12.10
2019-05-05T20:58:24.968Z,14.13
2019-05-05T21:00:54.923Z,15.68
2019-05-05T21:03:24.106Z,17.40
2019-05-05T21:05:53.878Z,17.50
2019-05-05T21:08:23.611Z,16.55
2019-05-05T21:10:53.662Z,13.63
2019-05-05T21:13:23.043Z,11.60
2019-05-05T21:15:53.904Z,12.10
2019-05-05T21:18:23.932Z,12.43
2019-05-05T21:20:54.636Z,12.03
2019-05-05T21:23:26.280Z,11.47
2019-05-05T21:25:59.751Z,9.67
2019-05-05T21:28:28.645Z,11.33
2019-05-05T21:30:58.045Z,11.12
2019-05-05T21:33:26.850Z,11.78
2019-05-05T21:35:56.273Z,12.90
2019-05-05T21:38:25.250Z,15.00
2019-05-05T21:40:54.850Z,14.63
2019-05-05T21:43:23.823Z,14.30
2019-05-05T21:45:53.750Z,13.45
2019-05-05T21:48:24.227Z,14.77
2019-05-05T21:50:54.395Z,14.30
2019-05-05T21:53:40.049Z,14.00
2019-05-05T21:56:26.489Z,14.30
2019-05-05T22:01:27.366Z,12.37
2019-05-05T22:03:55.415Z,13.40
2019-05-05T22:06:24.256Z,12.93
2019-05-05T22:08:53.878Z,12.43
2019-05-05T22:11:24.299Z,12.63
2019-05-05T22:13:54.078Z,12.17
2019-05-05T22:16:22.918Z,13.13
2019-05-05T22:18:53.966Z,14.45
2019-05-05T22:21:35.714Z,13.83
2019-05-05T22:24:15.769Z,17.07
2019-05-05T22:26:44.776Z,18.40
2019-05-05T22:29:14.142Z,18.40
2019-05-05T22:31:44.399Z,18.65
2019-05-05T22:34:14.603Z,17.50
2019-05-05T22:36:44.884Z,19.07
2019-05-05T22:39:16.380Z,21.00
2019-05-05T22:41:44.683Z,24.45
2019-05-05T22:44:14.119Z,26.12
2019-05-05T22:46:43.278Z,23.27
2019-05-05T22:49:11.943Z,21.73
2019-05-05T22:51:40.835Z,22.33
2019-05-05T22:54:09.416Z,19.63
2019-05-05T22:56:38.616Z,19.40
2019-05-05T22:59:07.510Z,18.02
2019-05-05T23:01:37.832Z,17.53
2019-05-05T23:04:20.236Z,13.77
2019-05-05T23:06:54.224Z,14.23
2019-05-05T23:09:23.031Z,13.67
2019-05-05T23:11:51.612Z,16.12
2019-05-05T23:14:30.431Z,17.48
2019-05-05T23:17:13.985Z,16.83
2019-05-05T23:19:47.157Z,17.97
2019-05-05T23:22:20.349Z,17.70
2019-05-05T23:24:56.608Z,17.47
2019-05-05T23:27:44.026Z,18.07
2019-05-05T23:30:15.698Z,16.23
2019-05-05T23:32:44.472Z,15.40
2019-05-05T23:35:14.252Z,17.43
2019-05-05T23:37:44.861Z,15.50
2019-05-05T23:40:15.037Z,15.38
2019-05-05T23:42:44.024Z,15.80
2019-05-05T23:45:13.828Z,17.25
2019-05-05T23:47:44.791Z,16.35
2019-05-05T23:50:13.783Z,16.10
2019-05-05T23:52:44.367Z,18.07
2019-05-05T23:55:14.319Z,15.77
2019-05-05T23:57:44.733Z,14.87
